Time;durP1;ratioP1;P1;durP2;ratioP2;P2;SDS_P1;SDS_P2;PMS_P1;PMS_P2;Temp;Humidity;BMP_temperature;BMP_pressure;BME280_temperature;BME280_humidity;BME280_pressure;Samples;Min_cycle;Max_cycle;Signal;HPM_P1;HPM_P2
2022/10/17 00:01:24;;;;;;;;;;;;;;;;;;5010031;28;20378;-65
2022/10/17 00:03:50;;;;;;;;;;;;;;;;;;5008991;28;19964;-64
2022/10/17 00:06:15;;;;;;;;;;;;;;;;;;5011985;28;19909;-65
2022/10/17 00:08:41;;;;;;;;;;;;;;;;;;5014587;28;20417;-65
2022/10/17 00:11:07;;;;;;;;;;;;;;;;;;5012492;28;19924;-63
2022/10/17 00:13:33;;;;;;;;;;;;;;;;;;5028569;28;19919;-65
2022/10/17 00:15:59;;;;;;;;;;;;;;;;;;5016673;28;19933;-64
2022/10/17 00:18:25;;;;;;;;;;;;;;;;;;5013787;28;19909;-65
2022/10/17 00:20:51;;;;;;;;;;;;;;;;;;5013861;28;19909;-62
2022/10/17 00:23:17;;;;;;;;;;;;;;;;;;5013655;28;20319;-64
2022/10/17 00:25:43;;;;;;;;;;;;;;;;;;5013475;28;20374;-63
2022/10/17 00:28:08;;;;;;;;;;;;;;;;;;5013530;28;19951;-63
2022/10/17 00:30:34;;;;;;;;;;;;;;;;;;5013683;28;19922;-65
2022/10/17 00:33:00;;;;;;;;;;;;;;;;;;5013516;28;19913;-65
2022/10/17 00:35:26;;;;;;;;;;;;;;;;;;5007304;28;19910;-64
2022/10/17 00:37:52;;;;;;;;;;;;;;;;;;5013392;28;19928;-65
2022/10/17 00:40:18;;;;;;;;;;;;;;;;;;5025737;28;19917;-65
2022/10/17 00:42:44;;;;;;;;;;;;;;;;;;5030681;28;19920;-63
2022/10/17 00:45:10;;;;;;;;;;;;;;;;;;5013612;28;20020;-64
2022/10/17 00:47:36;;;;;;;;;;;;;;;;;;5013670;28;20731;-65
2022/10/17 00:50:01;;;;;;;;;;;;;;;;;;5013187;28;19960;-64
2022/10/17 00:52:28;;;;;;;;;;;;;;;;;;5010357;28;19971;-63
2022/10/17 00:54:54;;;;;;;;;;;;;;;;;;5012938;28;20016;-65
2022/10/17 00:57:19;;;;;;;;;;;;;;;;;;5012438;28;19996;-63
2022/10/17 00:59:45;;;;;;;;;;;;;;;;;;5013304;28;20342;-62
2022/10/17 01:02:12;;;;;;;;;;;;;;;;;;5013102;28;19909;-64
2022/10/17 01:04:38;;;;;;;;;;;;;;;;;;5013356;28;19979;-63
2022/10/17 01:07:04;;;;;;;;;;;;;;;;;;5012725;28;20345;-64
2022/10/17 01:09:30;;;;;;;;;;;;;;;;;;5013014;28;19913;-65
2022/10/17 01:11:55;;;;;;;;;;;;;;;;;;5013038;28;20390;-65
2022/10/17 01:14:21;;;;;;;;;;;;;;;;;;5012935;28;19913;-63
2022/10/17 01:16:50;;;;;;;;;;;;;;;;;;5010937;28;20496;-64
2022/10/17 01:19:16;;;;;;;;;;;;;;;;;;5011320;28;19991;-64
2022/10/17 01:21:42;;;;;;;;;;;;;;;;;;5012255;28;19960;-65
2022/10/17 01:24:08;;;;;;;;;;;;;;;;;;5012485;28;20401;-64
2022/10/17 01:26:34;;;;;;;;;;;;;;;;;;5012057;28;19985;-64
2022/10/17 01:29:00;;;;;;;;;;;;;;;;;;5009676;28;19980;-65
2022/10/17 01:31:26;;;;;;;;;;;;;;;;;;5012284;28;19918;-64
2022/10/17 01:33:52;;;;;;;;;;;;;;;;;;5019263;28;20381;-65
2022/10/17 01:36:17;;;;;;;;;;;;;;;;;;5030996;28;19948;-63
2022/10/17 01:38:43;;;;;;;;;;;;;;;;;;5027992;28;19925;-64
2022/10/17 01:41:09;;;;;;;;;;;;;;;;;;5011538;28;19956;-63
2022/10/17 01:43:35;;;;;;;;;;;;;;;;;;5012369;28;20036;-64
2022/10/17 01:46:01;;;;;;;;;;;;;;;;;;5012263;28;19913;-62
2022/10/17 01:48:27;;;;;;;;;;;;;;;;;;5012683;28;19909;-64
2022/10/17 01:50:53;;;;;;;;;;;;;;;;;;5011964;28;19921;-64
2022/10/17 01:53:19;;;;;;;;;;;;;;;;;;5008074;28;19920;-65
2022/10/17 01:55:45;;;;;;;;;;;;;;;;;;5012010;28;19979;-65
2022/10/17 01:58:11;;;;;;;;;;;;;;;;;;5012153;28;20433;-64
2022/10/17 02:00:36;;;;;;;;;;;;;;;;;;5011681;28;19910;-63
2022/10/17 02:03:02;;;;;;;;;;;;;;;;;;5012019;28;19909;-64
2022/10/17 02:05:28;;;;;;;;;;;;;;;;;;5011968;28;20367;-63
2022/10/17 02:07:54;;;;;;;;;;;;;;;;;;5012241;28;19914;-63
2022/10/17 02:10:20;;;;;;;;;;;;;;;;;;5011645;28;19921;-63
2022/10/17 02:12:46;;;;;;;;;;;;;;;;;;5011500;28;20401;-64
2022/10/17 02:15:12;;;;;;;;;;;;;;;;;;5012118;28;19920;-63
2022/10/17 02:17:38;;;;;;;;;;;;;;;;;;5011948;28;19918;-62
2022/10/17 02:20:04;;;;;;;;;;;;;;;;;;5012396;28;20004;-64
2022/10/17 02:22:30;;;;;;;;;;;;;;;;;;5011706;28;19932;-64
2022/10/17 02:24:56;;;;;;;;;;;;;;;;;;5011596;28;19922;-64
2022/10/17 02:27:22;;;;;;;;;;;;;;;;;;5012061;28;19989;-64
2022/10/17 02:29:47;;;;;;;;;;;;;;;;;;5011671;28;20268;-63
2022/10/17 02:32:16;;;;;;;;;;;;;;;;;;5011584;28;19940;-64
2022/10/17 02:34:41;;;;;;;;;;;;;;;;;;5013954;28;19910;-63
2022/10/17 02:37:07;;;;;;;;;;;;;;;;;;5015428;28;19949;-62
2022/10/17 02:39:33;;;;;;;;;;;;;;;;;;5015612;28;19914;-64
2022/10/17 02:41:59;;;;;;;;;;;;;;;;;;5016044;28;19952;-62
2022/10/17 02:44:25;;;;;;;;;;;;;;;;;;5015799;28;19917;-64
2022/10/17 02:46:52;;;;;;;;;;;;;;;;;;5015863;28;19932;-63
2022/10/17 02:49:17;;;;;;;;;;;;;;;;;;5021905;28;19968;-62
2022/10/17 02:51:43;;;;;;;;;;;;;;;;;;5034619;28;19936;-63
2022/10/17 02:54:09;;;;;;;;;;;;;;;;;;5034287;28;20759;-65
2022/10/17 02:56:35;;;;;;;;;;;;;;;;;;5034833;28;19909;-63
2022/10/17 02:59:01;;;;;;;;;;;;;;;;;;5028968;28;20394;-64
2022/10/17 03:01:27;;;;;;;;;;;;;;;;;;5013550;28;20008;-64
2022/10/17 03:03:53;;;;;;;;;;;;;;;;;;5014950;28;19909;-65
2022/10/17 03:06:18;;;;;;;;;;;;;;;;;;5015983;28;19917;-64
2022/10/17 03:08:44;;;;;;;;;;;;;;;;;;5014613;28;19910;-64
2022/10/17 03:11:10;;;;;;;;;;;;;;;;;;5015199;28;19918;-64
2022/10/17 03:13:36;;;;;;;;;;;;;;;;;;5015196;28;20301;-63
2022/10/17 03:16:02;;;;;;;;;;;;;;;;;;5014998;28;19956;-64
2022/10/17 03:18:28;;;;;;;;;;;;;;;;;;5015563;28;20289;-64
2022/10/17 03:20:54;;;;;;;;;;;;;;;;;;5014671;28;19917;-63
2022/10/17 03:23:20;;;;;;;;;;;;;;;;;;5014549;28;19953;-64
2022/10/17 03:25:45;;;;;;;;;;;;;;;;;;5015274;28;19910;-64
2022/10/17 03:28:11;;;;;;;;;;;;;;;;;;5015161;28;19916;-63
2022/10/17 03:30:37;;;;;;;;;;;;;;;;;;5014572;28;19964;-64
2022/10/17 03:33:03;;;;;;;;;;;;;;;;;;5013636;28;19918;-63
2022/10/17 03:35:29;;;;;;;;;;;;;;;;;;5015297;28;19913;-65
2022/10/17 03:37:55;;;;;;;;;;;;;;;;;;5025718;28;19929;-63
2022/10/17 03:40:21;;;;;;;;;;;;;;;;;;5028309;28;20000;-64
2022/10/17 03:42:47;;;;;;;;;;;;;;;;;;5033369;28;19971;-63
2022/10/17 03:45:12;;;;;;;;;;;;;;;;;;5033226;28;20301;-64
2022/10/17 03:47:38;;;;;;;;;;;;;;;;;;5033454;28;19909;-62
2022/10/17 03:50:04;;;;;;;;;;;;;;;;;;5033704;28;20429;-65
2022/10/17 03:52:30;;;;;;;;;;;;;;;;;;5033471;28;19910;-64
2022/10/17 03:54:56;;;;;;;;;;;;;;;;;;5033093;28;19917;-64
2022/10/17 03:57:22;;;;;;;;;;;;;;;;;;5033086;28;19916;-64
2022/10/17 03:59:48;;;;;;;;;;;;;;;;;;5033684;28;20004;-62
2022/10/17 04:02:14;;;;;;;;;;;;;;;;;;5033093;28;20301;-64
2022/10/17 04:04:40;;;;;;;;;;;;;;;;;;5032631;28;19913;-63
2022/10/17 04:07:06;;;;;;;;;;;;;;;;;;5033338;28;19913;-64
2022/10/17 04:09:31;;;;;;;;;;;;;;;;;;5032638;28;20437;-64
2022/10/17 04:11:57;;;;;;;;;;;;;;;;;;5033273;28;19913;-62
2022/10/17 04:14:23;;;;;;;;;;;;;;;;;;5032544;28;20278;-65
2022/10/17 04:16:49;;;;;;;;;;;;;;;;;;5016560;28;19972;-63
2022/10/17 04:19:15;;;;;;;;;;;;;;;;;;5013557;28;20529;-63
2022/10/17 04:21:41;;;;;;;;;;;;;;;;;;5012551;28;19916;-64
2022/10/17 04:24:07;;;;;;;;;;;;;;;;;;5013734;28;19945;-64
2022/10/17 04:26:33;;;;;;;;;;;;;;;;;;5013811;28;19921;-65
2022/10/17 04:28:58;;;;;;;;;;;;;;;;;;5013433;28;19936;-62
2022/10/17 04:31:24;;;;;;;;;;;;;;;;;;5012317;28;19963;-63
2022/10/17 04:33:50;;;;;;;;;;;;;;;;;;5013498;28;19920;-64
2022/10/17 04:36:16;;;;;;;;;;;;;;;;;;5013169;28;19909;-65
2022/10/17 04:38:42;;;;;;;;;;;;;;;;;;5014721;28;20004;-64
2022/10/17 04:41:08;;;;;;;;;;;;;;;;;;5032276;28;19909;-65
2022/10/17 04:43:34;;;;;;;;;;;;;;;;;;5032154;28;19967;-65
2022/10/17 04:46:00;;;;;;;;;;;;;;;;;;5017381;28;19914;-64
2022/10/17 04:48:26;;;;;;;;;;;;;;;;;;5012893;28;20329;-64
2022/10/17 04:50:51;;;;;;;;;;;;;;;;;;5011527;28;20314;-64
2022/10/17 04:53:17;;;;;;;;;;;;;;;;;;5012988;28;19921;-63
2022/10/17 04:55:43;;;;;;;;;;;;;;;;;;5013084;28;20325;-62
2022/10/17 04:58:09;;;;;;;;;;;;;;;;;;5012732;28;19913;-61
2022/10/17 05:00:35;;;;;;;;;;;;;;;;;;5012557;28;20055;-63
2022/10/17 05:03:01;;;;;;;;;;;;;;;;;;5008914;28;19909;-64
2022/10/17 05:05:27;;;;;;;;;;;;;;;;;;5012537;28;19909;-63
2022/10/17 05:07:53;;;;;;;;;;;;;;;;;;5008291;28;20055;-64
2022/10/17 05:10:19;;;;;;;;;;;;;;;;;;5012910;28;19921;-64
2022/10/17 05:12:45;;;;;;;;;;;;;;;;;;5012982;28;20020;-61
2022/10/17 05:15:10;;;;;;;;;;;;;;;;;;5012648;28;19909;-62
2022/10/17 05:17:36;;;;;;;;;;;;;;;;;;5012176;28;19909;-63
2022/10/17 05:20:02;;;;;;;;;;;;;;;;;;5012617;28;20372;-61
2022/10/17 05:22:28;;;;;;;;;;;;;;;;;;5012752;28;19916;-63
2022/10/17 05:24:54;;;;;;;;;;;;;;;;;;5012512;28;19916;-62
2022/10/17 05:27:20;;;;;;;;;;;;;;;;;;5010137;28;20381;-64
2022/10/17 05:29:46;;;;;;;;;;;;;;;;;;5012063;28;19924;-63
2022/10/17 05:32:12;;;;;;;;;;;;;;;;;;5010760;28;20369;-63
2022/10/17 05:34:38;;;;;;;;;;;;;;;;;;5012309;28;19910;-62
2022/10/17 05:37:03;;;;;;;;;;;;;;;;;;5011492;28;19925;-64
2022/10/17 05:39:29;;;;;;;;;;;;;;;;;;5018264;28;19920;-63
2022/10/17 05:41:55;;;;;;;;;;;;;;;;;;5011934;28;19918;-65
2022/10/17 05:44:21;;;;;;;;;;;;;;;;;;5011595;28;19929;-63
2022/10/17 05:46:47;;;;;;;;;;;;;;;;;;5011151;28;19910;-64
2022/10/17 05:49:13;;;;;;;;;;;;;;;;;;5011834;28;19916;-64
2022/10/17 05:51:39;;;;;;;;;;;;;;;;;;5010240;28;19971;-64
2022/10/17 05:54:06;;;;;;;;;;;;;;;;;;5010780;28;19909;-63
2022/10/17 05:56:31;;;;;;;;;;;;;;;;;;5031036;28;19916;-64
2022/10/17 05:58:57;;;;;;;;;;;;;;;;;;5029670;28;19910;-63
2022/10/17 06:01:23;;;;;;;;;;;;;;;;;;5030378;28;19916;-63
2022/10/17 06:03:49;;;;;;;;;;;;;;;;;;5030469;28;20000;-63
2022/10/17 06:06:15;;;;;;;;;;;;;;;;;;5030451;28;19909;-64
2022/10/17 06:08:41;;;;;;;;;;;;;;;;;;5029815;28;19909;-63
2022/10/17 06:11:07;;;;;;;;;;;;;;;;;;5030128;28;20079;-65
2022/10/17 06:13:33;;;;;;;;;;;;;;;;;;5030057;28;19936;-64
2022/10/17 06:15:59;;;;;;;;;;;;;;;;;;5030010;28;19964;-64
2022/10/17 06:18:25;;;;;;;;;;;;;;;;;;5026146;28;19920;-63
2022/10/17 06:20:51;;;;;;;;;;;;;;;;;;5011640;28;19909;-64
2022/10/17 06:23:17;;;;;;;;;;;;;;;;;;5011418;28;20413;-63
2022/10/17 06:25:43;;;;;;;;;;;;;;;;;;5011425;28;19956;-63
2022/10/17 06:28:10;;;;;;;;;;;;;;;;;;5011256;28;19952;-63
2022/10/17 06:30:35;;;;;;;;;;;;;;;;;;5011177;28;19921;-63
2022/10/17 06:33:01;;;;;;;;;;;;;;;;;;5011315;28;19916;-63
2022/10/17 06:35:27;;;;;;;;;;;;;;;;;;5009845;28;19909;-64
2022/10/17 06:37:53;;;;;;;;;;;;;;;;;;5010991;28;19925;-65
2022/10/17 06:40:19;;;;;;;;;;;;;;;;;;5023049;28;19962;-63
2022/10/17 06:42:45;;;;;;;;;;;;;;;;;;5029669;28;19914;-63
2022/10/17 06:45:11;;;;;;;;;;;;;;;;;;5029938;28;19999;-62
2022/10/17 06:47:37;;;;;;;;;;;;;;;;;;5015258;28;19968;-64
2022/10/17 06:50:03;;;;;;;;;;;;;;;;;;5011470;28;19921;-63
2022/10/17 06:52:28;;;;;;;;;;;;;;;;;;5024678;28;19914;-64
2022/10/17 06:54:54;;;;;;;;;;;;;;;;;;5030277;28;19913;-62
2022/10/17 06:57:20;;;;;;;;;;;;;;;;;;5030048;28;20356;-62
2022/10/17 06:59:46;;;;;;;;;;;;;;;;;;5015191;28;19959;-63
2022/10/17 07:02:12;;;;;;;;;;;;;;;;;;5011629;28;20400;-63
2022/10/17 07:04:38;;;;;;;;;;;;;;;;;;5010168;28;19909;-64
2022/10/17 07:07:04;;;;;;;;;;;;;;;;;;5011554;28;19948;-64
2022/10/17 07:09:30;;;;;;;;;;;;;;;;;;5010744;28;20004;-63
2022/10/17 07:11:56;;;;;;;;;;;;;;;;;;5010789;28;19941;-64
2022/10/17 07:14:21;;;;;;;;;;;;;;;;;;5010156;28;19910;-64
2022/10/17 07:16:47;;;;;;;;;;;;;;;;;;5011006;28;19968;-64
2022/10/17 07:19:13;;;;;;;;;;;;;;;;;;5010927;28;20282;-64
2022/10/17 07:21:39;;;;;;;;;;;;;;;;;;5015014;28;19910;-64
2022/10/17 07:24:06;;;;;;;;;;;;;;;;;;5009356;28;19909;-64
2022/10/17 07:26:32;;;;;;;;;;;;;;;;;;5013944;28;20474;-64
2022/10/17 07:28:58;;;;;;;;;;;;;;;;;;5015077;28;20000;-63
2022/10/17 07:31:23;;;;;;;;;;;;;;;;;;5014238;28;19963;-64
2022/10/17 07:33:50;;;;;;;;;;;;;;;;;;5014693;28;19914;-63
2022/10/17 07:36:15;;;;;;;;;;;;;;;;;;5014559;28;19909;-62
2022/10/17 07:38:41;;;;;;;;;;;;;;;;;;5016520;28;19924;-64
2022/10/17 07:41:07;;;;;;;;;;;;;;;;;;5034131;28;19909;-63
2022/10/17 07:43:33;;;;;;;;;;;;;;;;;;5033166;28;19935;-63
2022/10/17 07:45:59;;;;;;;;;;;;;;;;;;5033518;28;19998;-65
2022/10/17 07:48:25;;;;;;;;;;;;;;;;;;5033475;28;20429;-64
2022/10/17 07:50:51;;;;;;;;;;;;;;;;;;5032382;28;19921;-65
2022/10/17 07:53:17;;;;;;;;;;;;;;;;;;5014044;28;19916;-65
2022/10/17 07:55:45;;;;;;;;;;;;;;;;;;5014713;28;19910;-64
2022/10/17 07:58:11;;;;;;;;;;;;;;;;;;5013764;28;20031;-64
2022/10/17 08:00:36;;;;;;;;;;;;;;;;;;5013776;28;20013;-65
2022/10/17 08:03:02;;;;;;;;;;;;;;;;;;5014875;28;20437;-63
2022/10/17 08:05:28;;;;;;;;;;;;;;;;;;5032662;28;19913;-64
2022/10/17 08:07:54;;;;;;;;;;;;;;;;;;5033139;28;20485;-64
2022/10/17 08:10:20;;;;;;;;;;;;;;;;;;5031549;28;19971;-65
2022/10/17 08:12:46;;;;;;;;;;;;;;;;;;5032573;28;20333;-64
2022/10/17 08:15:12;;;;;;;;;;;;;;;;;;5031069;28;19909;-61
2022/10/17 08:17:38;;;;;;;;;;;;;;;;;;5018175;28;20512;-61
2022/10/17 08:20:04;;;;;;;;;;;;;;;;;;5006823;28;19917;-63
2022/10/17 08:22:30;;;;;;;;;;;;;;;;;;5014995;28;20629;-67
2022/10/17 08:24:56;;;;;;;;;;;;;;;;;;5030943;28;19948;-67
2022/10/17 08:27:26;;;;;;;;;;;;;;;;;;5014892;28;20409;-67
2022/10/17 08:29:53;;;;;;;;;;;;;;;;;;5004877;28;20424;-65
2022/10/17 08:32:18;;;;;;;;;;;;;;;;;;5021741;28;19960;-67
2022/10/17 08:34:44;;;;;;;;;;;;;;;;;;5019560;28;20203;-67
2022/10/17 08:37:12;;;;;;;;;;;;;;;;;;5011836;28;19921;-68
2022/10/17 08:39:38;;;;;;;;;;;;;;;;;;5020258;28;19909;-67
2022/10/17 08:42:04;;;;;;;;;;;;;;;;;;5030833;28;20297;-68
2022/10/17 08:44:30;;;;;;;;;;;;;;;;;;5031100;28;19935;-66
2022/10/17 08:46:57;;;;;;;;;;;;;;;;;;5013371;28;19924;-67
2022/10/17 08:49:23;;;;;;;;;;;;;;;;;;5011918;28;19920;-66
2022/10/17 08:51:49;;;;;;;;;;;;;;;;;;5012014;28;20310;-65
2022/10/17 08:54:15;;;;;;;;;;;;;;;;;;5011502;28;19914;-67
2022/10/17 08:56:41;;;;;;;;;;;;;;;;;;5011484;28;19919;-66
2022/10/17 08:59:07;;;;;;;;;;;;;;;;;;5011714;28;19936;-64
2022/10/17 09:01:33;;;;;;;;;;;;;;;;;;5011877;28;19909;-67
2022/10/17 09:03:58;;;;;;;;;;;;;;;;;;5011721;28;20369;-67
2022/10/17 09:06:28;;;;;;;;;;;;;;;;;;5011532;28;19917;-68
2022/10/17 09:08:54;;;;;;;;;;;;;;;;;;5011664;28;20386;-67
2022/10/17 09:11:20;;;;;;;;;;;;;;;;;;5011701;28;19917;-67
2022/10/17 09:13:46;;;;;;;;;;;;;;;;;;5011465;28;19909;-67
2022/10/17 09:16:12;;;;;;;;;;;;;;;;;;5011242;28;19933;-67
2022/10/17 09:18:38;;;;;;;;;;;;;;;;;;5011136;28;19909;-68
2022/10/17 09:21:04;;;;;;;;;;;;;;;;;;5011286;28;20008;-68
2022/10/17 09:23:29;;;;;;;;;;;;;;;;;;5017013;28;19917;-66
2022/10/17 09:25:55;;;;;;;;;;;;;;;;;;5011349;28;19916;-68
2022/10/17 09:28:21;;;;;;;;;;;;;;;;;;5010799;28;20383;-67
2022/10/17 09:30:47;;;;;;;;;;;;;;;;;;5010364;28;19930;-67
2022/10/17 09:33:13;;;;;;;;;;;;;;;;;;5015716;28;19917;-67
2022/10/17 09:35:40;;;;;;;;;;;;;;;;;;5030136;28;19909;-67
2022/10/17 09:38:07;;;;;;;;;;;;;;;;;;5028109;28;19921;-66
2022/10/17 09:40:33;;;;;;;;;;;;;;;;;;5027095;28;19909;-67
2022/10/17 09:42:59;;;;;;;;;;;;;;;;;;5025473;28;19917;-67
2022/10/17 09:45:25;;;;;;;;;;;;;;;;;;5011002;28;19914;-64
2022/10/17 09:47:51;;;;;;;;;;;;;;;;;;5007205;28;19981;-62
2022/10/17 09:50:17;;;;;;;;;;;;;;;;;;5011440;28;19929;-61
2022/10/17 09:52:47;;;;;;;;;;;;;;;;;;5007095;28;19917;-62
2022/10/17 09:55:13;;;;;;;;;;;;;;;;;;5008128;28;20421;-60
2022/10/17 09:57:39;;;;;;;;;;;;;;;;;;5009853;28;19921;-64
2022/10/17 10:00:05;;;;;;;;;;;;;;;;;;5009635;28;19913;-64
2022/10/17 10:02:35;;;;;;;;;;;;;;;;;;5029197;28;19913;-63
2022/10/17 10:05:01;;;;;;;;;;;;;;;;;;5022150;28;19939;-62
2022/10/17 10:07:27;;;;;;;;;;;;;;;;;;5010445;28;19956;-62
2022/10/17 10:09:52;;;;;;;;;;;;;;;;;;5010875;28;19918;-65
2022/10/17 10:12:18;;;;;;;;;;;;;;;;;;5008541;28;20358;-64
2022/10/17 10:14:45;;;;;;;;;;;;;;;;;;5008774;28;19910;-64
2022/10/17 10:17:11;;;;;;;;;;;;;;;;;;5009954;28;20311;-62
2022/10/17 10:19:37;;;;;;;;;;;;;;;;;;5003962;28;19948;-61
2022/10/17 10:22:02;;;;;;;;;;;;;;;;;;5004661;28;19942;-64
2022/10/17 10:24:28;;;;;;;;;;;;;;;;;;5013776;28;19992;-65
2022/10/17 10:26:54;;;;;;;;;;;;;;;;;;4998511;28;19969;-64
2022/10/17 10:29:21;;;;;;;;;;;;;;;;;;5010859;28;19955;-63
2022/10/17 10:31:46;;;;;;;;;;;;;;;;;;5011581;28;19921;-64
2022/10/17 10:34:12;;;;;;;;;;;;;;;;;;5009392;28;19909;-64
2022/10/17 10:36:38;;;;;;;;;;;;;;;;;;5004419;28;19914;-65
2022/10/17 10:39:04;;;;;;;;;;;;;;;;;;5014804;28;19917;-65
2022/10/17 10:41:30;;;;;;;;;;;;;;;;;;5008415;28;20295;-65
2022/10/17 10:43:56;;;;;;;;;;;;;;;;;;5010740;28;19955;-64
2022/10/17 10:46:22;;;;;;;;;;;;;;;;;;5007273;28;19953;-64
2022/10/17 10:48:48;;;;;;;;;;;;;;;;;;5009634;28;19929;-64
2022/10/17 10:51:13;;;;;;;;;;;;;;;;;;5011697;28;19921;-65
2022/10/17 10:53:39;;;;;;;;;;;;;;;;;;5005851;28;20009;-63
2022/10/17 10:56:05;;;;;;;;;;;;;;;;;;5009186;28;19909;-65
2022/10/17 10:58:31;;;;;;;;;;;;;;;;;;5019077;28;19959;-64
2022/10/17 11:00:57;;;;;;;;;;;;;;;;;;5019657;28;19943;-64
2022/10/17 11:03:23;;;;;;;;;;;;;;;;;;5015149;28;19963;-64
2022/10/17 11:05:49;;;;;;;;;;;;;;;;;;5013403;28;19916;-65
2022/10/17 11:08:15;;;;;;;;;;;;;;;;;;5009512;28;19909;-62
2022/10/17 11:10:43;;;;;;;;;;;;;;;;;;5013920;28;20011;-64
2022/10/17 11:13:09;;;;;;;;;;;;;;;;;;5009557;28;19909;-64
2022/10/17 11:15:34;;;;;;;;;;;;;;;;;;5026420;28;19913;-64
2022/10/17 11:18:00;;;;;;;;;;;;;;;;;;5010383;28;20012;-62
2022/10/17 11:20:26;;;;;;;;;;;;;;;;;;5013666;28;19991;-62
2022/10/17 11:22:52;;;;;;;;;;;;;;;;;;5009487;28;20279;-63
2022/10/17 11:25:18;;;;;;;;;;;;;;;;;;5018688;28;19936;-64
2022/10/17 11:27:44;;;;;;;;;;;;;;;;;;5006707;28;20385;-64
2022/10/17 11:30:10;;;;;;;;;;;;;;;;;;5014096;28;19921;-63
2022/10/17 11:32:36;;;;;;;;;;;;;;;;;;5010907;28;19996;-62
2022/10/17 11:35:02;;;;;;;;;;;;;;;;;;5014002;28;19952;-64
2022/10/17 11:37:27;;;;;;;;;;;;;;;;;;5008203;28;19925;-63
2022/10/17 11:39:53;;;;;;;;;;;;;;;;;;5014621;28;19917;-64
2022/10/17 11:42:19;;;;;;;;;;;;;;;;;;5011799;28;19909;-63
2022/10/17 11:44:45;;;;;;;;;;;;;;;;;;5007754;28;20024;-63
2022/10/17 11:47:11;;;;;;;;;;;;;;;;;;5011332;28;20453;-62
2022/10/17 11:49:37;;;;;;;;;;;;;;;;;;5021383;28;20007;-64
2022/10/17 11:52:03;;;;;;;;;;;;;;;;;;5013058;28;20001;-64
2022/10/17 11:54:29;;;;;;;;;;;;;;;;;;5008912;28;19946;-64
2022/10/17 11:56:55;;;;;;;;;;;;;;;;;;5011930;28;19910;-63
2022/10/17 11:59:20;;;;;;;;;;;;;;;;;;5006201;28;19920;-65
2022/10/17 12:01:46;;;;;;;;;;;;;;;;;;5012184;28;19910;-63
2022/10/17 12:04:12;;;;;;;;;;;;;;;;;;5012597;28;19910;-64
2022/10/17 12:06:38;;;;;;;;;;;;;;;;;;5014028;28;20355;-62
2022/10/17 12:09:04;;;;;;;;;;;;;;;;;;5014023;28;19957;-65
2022/10/17 12:11:33;;;;;;;;;;;;;;;;;;5017075;28;19960;-63
2022/10/17 12:13:59;;;;;;;;;;;;;;;;;;5032621;28;19909;-63
2022/10/17 12:16:25;;;;;;;;;;;;;;;;;;5032919;28;19916;-63
2022/10/17 12:18:51;;;;;;;;;;;;;;;;;;5017588;28;20286;-62
2022/10/17 12:21:17;;;;;;;;;;;;;;;;;;5013894;28;20409;-65
2022/10/17 12:23:43;;;;;;;;;;;;;;;;;;5013913;28;19924;-63
2022/10/17 12:26:08;;;;;;;;;;;;;;;;;;5013571;28;20393;-64
2022/10/17 12:28:34;;;;;;;;;;;;;;;;;;5013119;28;20004;-63
2022/10/17 12:31:00;;;;;;;;;;;;;;;;;;5014226;28;19917;-62
2022/10/17 12:33:26;;;;;;;;;;;;;;;;;;5013186;28;20270;-61
2022/10/17 12:35:52;;;;;;;;;;;;;;;;;;5013612;28;19992;-63
2022/10/17 12:38:18;;;;;;;;;;;;;;;;;;5012090;28;19927;-63
2022/10/17 12:40:46;;;;;;;;;;;;;;;;;;5026820;28;20413;-65
2022/10/17 12:43:12;;;;;;;;;;;;;;;;;;5032517;28;20322;-64
2022/10/17 12:45:38;;;;;;;;;;;;;;;;;;5027727;28;19945;-65
2022/10/17 12:48:03;;;;;;;;;;;;;;;;;;5012514;28;19917;-62
2022/10/17 12:50:29;;;;;;;;;;;;;;;;;;5009394;28;19913;-64
2022/10/17 12:52:56;;;;;;;;;;;;;;;;;;5011809;28;19945;-62
2022/10/17 12:55:22;;;;;;;;;;;;;;;;;;5014556;28;19964;-64
2022/10/17 12:57:48;;;;;;;;;;;;;;;;;;5012883;28;19913;-64
2022/10/17 13:00:14;;;;;;;;;;;;;;;;;;5013606;28;19909;-65
2022/10/17 13:02:40;;;;;;;;;;;;;;;;;;5012501;28;19920;-62
2022/10/17 13:05:06;;;;;;;;;;;;;;;;;;5013192;28;19916;-64
2022/10/17 13:07:32;;;;;;;;;;;;;;;;;;5012869;28;20390;-64
2022/10/17 13:10:03;;;;;;;;;;;;;;;;;;5012930;28;19913;-64
2022/10/17 13:12:29;;;;;;;;;;;;;;;;;;5012903;28;19910;-65
2022/10/17 13:14:55;;;;;;;;;;;;;;;;;;5012940;28;19910;-64
2022/10/17 13:17:21;;;;;;;;;;;;;;;;;;5012080;28;19909;-65
2022/10/17 13:19:47;;;;;;;;;;;;;;;;;;5012467;28;19924;-64
2022/10/17 13:22:13;;;;;;;;;;;;;;;;;;5009243;28;19940;-64
2022/10/17 13:24:39;;;;;;;;;;;;;;;;;;5012436;28;19909;-63
2022/10/17 13:27:04;;;;;;;;;;;;;;;;;;5012904;28;20004;-65
2022/10/17 13:29:31;;;;;;;;;;;;;;;;;;5012246;28;19910;-64
2022/10/17 13:31:59;;;;;;;;;;;;;;;;;;5011916;28;19922;-64
2022/10/17 13:34:25;;;;;;;;;;;;;;;;;;5012601;28;19913;-64
2022/10/17 13:36:52;;;;;;;;;;;;;;;;;;5011025;28;19920;-63
2022/10/17 13:39:18;;;;;;;;;;;;;;;;;;5011589;28;20386;-65
2022/10/17 13:41:44;;;;;;;;;;;;;;;;;;5010885;28;19953;-65
2022/10/17 13:44:09;;;;;;;;;;;;;;;;;;5010158;28;19910;-64
2022/10/17 13:46:35;;;;;;;;;;;;;;;;;;5010384;28;20161;-62
2022/10/17 13:49:01;;;;;;;;;;;;;;;;;;5004108;28;19925;-64
2022/10/17 13:51:27;;;;;;;;;;;;;;;;;;5008525;28;19928;-63
2022/10/17 13:53:53;;;;;;;;;;;;;;;;;;5003630;28;19956;-64
2022/10/17 13:56:19;;;;;;;;;;;;;;;;;;5007060;28;20363;-63
2022/10/17 13:58:45;;;;;;;;;;;;;;;;;;5017575;28;20014;-64
2022/10/17 14:01:11;;;;;;;;;;;;;;;;;;5010756;28;19914;-62
2022/10/17 14:03:39;;;;;;;;;;;;;;;;;;5010589;28;19909;-64
2022/10/17 14:06:05;;;;;;;;;;;;;;;;;;5009808;28;19945;-61
2022/10/17 14:08:31;;;;;;;;;;;;;;;;;;5023553;28;19971;-64
2022/10/17 14:10:57;;;;;;;;;;;;;;;;;;5026035;28;19921;-63
2022/10/17 14:13:23;;;;;;;;;;;;;;;;;;5029581;28;20011;-62
2022/10/17 14:15:49;;;;;;;;;;;;;;;;;;5027822;28;19913;-64
2022/10/17 14:18:15;;;;;;;;;;;;;;;;;;5012111;28;19913;-62
2022/10/17 14:20:41;;;;;;;;;;;;;;;;;;5010362;28;19914;-63
2022/10/17 14:23:07;;;;;;;;;;;;;;;;;;5009964;28;19913;-63
2022/10/17 14:25:34;;;;;;;;;;;;;;;;;;5028363;28;19956;-63
2022/10/17 14:28:02;;;;;;;;;;;;;;;;;;5017602;28;19913;-63
2022/10/17 14:30:28;;;;;;;;;;;;;;;;;;5004987;28;19917;-62
2022/10/17 14:32:54;;;;;;;;;;;;;;;;;;5010718;28;19914;-63
2022/10/17 14:35:20;;;;;;;;;;;;;;;;;;5009945;28;19909;-63
2022/10/17 14:37:46;;;;;;;;;;;;;;;;;;5010544;28;20400;-64
2022/10/17 14:40:12;;;;;;;;;;;;;;;;;;5020456;28;20572;-64
2022/10/17 14:42:38;;;;;;;;;;;;;;;;;;5014676;28;19913;-64
2022/10/17 14:45:04;;;;;;;;;;;;;;;;;;5007900;28;19996;-64
2022/10/17 14:47:30;;;;;;;;;;;;;;;;;;5005383;28;20019;-65
2022/10/17 14:49:56;;;;;;;;;;;;;;;;;;5003378;28;19950;-64
2022/10/17 14:52:21;;;;;;;;;;;;;;;;;;5009729;28;20035;-64
2022/10/17 14:54:47;;;;;;;;;;;;;;;;;;5006617;28;19924;-63
2022/10/17 14:57:13;;;;;;;;;;;;;;;;;;5004097;28;20393;-65
2022/10/17 14:59:39;;;;;;;;;;;;;;;;;;5008794;28;19945;-63
2022/10/17 15:02:05;;;;;;;;;;;;;;;;;;5006327;28;19917;-66
2022/10/17 15:04:31;;;;;;;;;;;;;;;;;;5008206;28;19936;-64
2022/10/17 15:06:57;;;;;;;;;;;;;;;;;;5017191;28;19945;-65
2022/10/17 15:09:27;;;;;;;;;;;;;;;;;;5008118;28;19913;-64
2022/10/17 15:11:53;;;;;;;;;;;;;;;;;;5010966;28;19925;-64
2022/10/17 15:14:19;;;;;;;;;;;;;;;;;;5010904;28;19917;-62
2022/10/17 15:16:45;;;;;;;;;;;;;;;;;;5004925;28;20567;-63
2022/10/17 15:19:11;;;;;;;;;;;;;;;;;;5006927;28;19914;-64
2022/10/17 15:21:37;;;;;;;;;;;;;;;;;;5003595;28;20267;-65
2022/10/17 15:24:03;;;;;;;;;;;;;;;;;;5003211;28;19953;-64
2022/10/17 15:26:29;;;;;;;;;;;;;;;;;;5001941;28;20654;-63
2022/10/17 15:28:55;;;;;;;;;;;;;;;;;;5009006;28;20004;-64
2022/10/17 15:31:21;;;;;;;;;;;;;;;;;;5010209;28;20437;-65
2022/10/17 15:33:47;;;;;;;;;;;;;;;;;;5004633;28;19914;-63
2022/10/17 15:36:13;;;;;;;;;;;;;;;;;;5009891;28;19913;-62
2022/10/17 15:38:38;;;;;;;;;;;;;;;;;;5008701;28;20397;-63
2022/10/17 15:41:04;;;;;;;;;;;;;;;;;;5014901;28;19914;-63
2022/10/17 15:43:30;;;;;;;;;;;;;;;;;;5013655;28;20334;-64
2022/10/17 15:45:56;;;;;;;;;;;;;;;;;;5011740;28;19967;-63
2022/10/17 15:48:22;;;;;;;;;;;;;;;;;;5030432;28;20448;-62
2022/10/17 15:50:48;;;;;;;;;;;;;;;;;;5032554;28;20000;-62
2022/10/17 15:53:14;;;;;;;;;;;;;;;;;;5025325;28;20012;-64
2022/10/17 15:55:40;;;;;;;;;;;;;;;;;;5013655;28;19910;-61
2022/10/17 15:58:06;;;;;;;;;;;;;;;;;;5013978;28;19918;-64
2022/10/17 16:00:31;;;;;;;;;;;;;;;;;;5013970;28;19917;-63
2022/10/17 16:02:57;;;;;;;;;;;;;;;;;;5020943;28;19924;-65
2022/10/17 16:05:27;;;;;;;;;;;;;;;;;;5032828;28;20000;-62
2022/10/17 16:07:53;;;;;;;;;;;;;;;;;;5032899;28;19941;-61
2022/10/17 16:10:19;;;;;;;;;;;;;;;;;;5015914;28;20338;-62
2022/10/17 16:12:48;;;;;;;;;;;;;;;;;;5013665;28;19921;-63
2022/10/17 16:15:14;;;;;;;;;;;;;;;;;;5012339;28;19909;-62
2022/10/17 16:17:40;;;;;;;;;;;;;;;;;;5008110;28;19993;-63
2022/10/17 16:20:06;;;;;;;;;;;;;;;;;;5013874;28;20007;-63
2022/10/17 16:22:32;;;;;;;;;;;;;;;;;;5010223;28;19911;-63
2022/10/17 16:25:06;;;;;;;;;;;;;;;;;;5012938;28;19924;-64
2022/10/17 16:27:32;;;;;;;;;;;;;;;;;;5013865;28;19909;-65
2022/10/17 16:29:58;;;;;;;;;;;;;;;;;;5013931;28;19944;-64
2022/10/17 16:32:23;;;;;;;;;;;;;;;;;;5013883;28;19952;-65
2022/10/17 16:34:49;;;;;;;;;;;;;;;;;;5013582;28;20003;-63
2022/10/17 16:37:15;;;;;;;;;;;;;;;;;;5013058;28;19968;-63